createdAt,value
2023-04-03T00:01:00.000Z,1.7
2023-04-03T00:02:15.000Z,1.7
2023-04-03T00:03:29.570Z,1.7
2023-04-03T00:05:58.000Z,1.7
2023-04-03T00:07:12.638Z,1.7
2023-04-03T00:08:27.000Z,1.7
2023-04-03T00:10:54.000Z,1.6
2023-04-03T00:12:09.000Z,1.6
2023-04-03T00:13:23.446Z,1.6
2023-04-03T00:14:37.000Z,1.6
2023-04-03T00:17:06.000Z,1.6
2023-04-03T00:18:20.000Z,1.6
2023-04-03T00:19:35.000Z,1.6
2023-04-03T00:20:49.578Z,1.6
2023-04-03T00:22:03.930Z,1.6
2023-04-03T00:23:18.000Z,1.5
2023-04-03T00:24:32.000Z,1.5
2023-04-03T00:25:46.993Z,1.5
2023-04-03T00:27:01.352Z,1.5
2023-04-03T00:28:14.000Z,1.5
2023-04-03T00:29:29.124Z,1.5
2023-04-03T00:30:43.000Z,1.5
2023-04-03T00:33:12.187Z,1.5
2023-04-03T00:34:26.000Z,1.5
2023-04-03T00:35:40.000Z,1.5
2023-04-03T00:36:55.238Z,1.4
2023-04-03T00:38:09.606Z,1.4
2023-04-03T00:39:23.000Z,1.4
2023-04-03T00:40:38.308Z,1.4
2023-04-03T00:41:52.000Z,1.4
2023-04-03T00:43:07.017Z,1.4
2023-04-03T00:44:21.000Z,1.4
2023-04-03T00:45:35.000Z,1.3
2023-04-03T00:46:50.000Z,1.3
2023-04-03T00:48:04.000Z,1.3
2023-04-03T00:50:33.000Z,1.2
2023-04-03T00:51:47.000Z,1.2
2023-04-03T00:53:01.000Z,1.2
2023-04-03T00:54:16.221Z,1.2
2023-04-03T00:55:30.000Z,1.2
2023-04-03T00:56:44.000Z,1.2
2023-04-03T00:57:59.000Z,1.1
2023-04-03T00:59:12.000Z,1.1
2023-04-03T01:00:26.114Z,1.1
2023-04-03T01:01:40.000Z,1.1
2023-04-03T01:02:54.808Z,1
2023-04-03T01:04:09.000Z,1
2023-04-03T01:06:37.874Z,1
2023-04-03T01:07:52.000Z,1
2023-04-03T01:09:06.000Z,0.9
2023-04-03T01:10:20.956Z,0.9
2023-04-03T01:11:35.000Z,0.9
2023-04-03T01:12:49.000Z,0.9
2023-04-03T01:14:04.000Z,0.9
2023-04-03T01:15:18.000Z,0.8
2023-04-03T01:16:32.734Z,0.9
2023-04-03T01:17:47.000Z,0.8
2023-04-03T01:19:00.000Z,0.8
2023-04-03T01:20:14.000Z,0.8
2023-04-03T01:21:29.185Z,0.8
2023-04-03T01:23:57.000Z,0.7
2023-04-03T01:25:11.000Z,0.7
2023-04-03T01:26:24.746Z,0.6
2023-04-03T01:27:39.079Z,0.6
2023-04-03T01:28:53.000Z,0.6
2023-04-03T01:30:07.000Z,0.6
2023-04-03T01:31:22.000Z,0.5
2023-04-03T01:32:36.000Z,0.5
2023-04-03T01:35:05.000Z,0.5
2023-04-03T01:36:19.563Z,0.4
2023-04-03T01:37:33.000Z,0.4
2023-04-03T01:38:48.280Z,0.4
2023-04-03T01:42:31.000Z,0.3
2023-04-03T01:43:45.695Z,0.3
2023-04-03T01:44:59.111Z,0.3
2023-04-03T01:46:13.000Z,0.3
2023-04-03T01:47:27.000Z,0.3
2023-04-03T01:48:42.000Z,0.3
2023-04-03T01:51:10.000Z,0.2
2023-04-03T01:52:25.000Z,0.2
2023-04-03T01:53:39.000Z,0.2
2023-04-03T01:54:53.000Z,0.2
2023-04-03T01:56:08.304Z,0.2
2023-04-03T01:57:22.663Z,0.1
2023-04-03T01:58:37.017Z,0.1
2023-04-03T01:59:51.000Z,0.1
2023-04-03T02:02:19.000Z,0.1
2023-04-03T02:03:33.000Z,0.1
2023-04-03T02:04:47.000Z,0.1
2023-04-03T02:06:02.000Z,0.1
2023-04-03T02:08:30.000Z,0.1
2023-04-03T02:09:45.000Z,0
2023-04-03T02:10:59.000Z,0
2023-04-03T02:13:28.312Z,0
2023-04-03T02:14:42.000Z,0
2023-04-03T02:15:57.000Z,0
2023-04-03T02:18:25.726Z,-0.1
2023-04-03T02:19:40.000Z,-0.1
2023-04-03T02:20:54.446Z,-0.1
2023-04-03T02:22:08.000Z,-0.1
2023-04-03T02:24:37.000Z,-0.1
2023-04-03T02:25:51.000Z,-0.1
2023-04-03T02:27:06.000Z,-0.2
2023-04-03T02:28:20.000Z,-0.1
2023-04-03T02:30:49.000Z,-0.2
2023-04-03T02:32:03.000Z,-0.2
2023-04-03T02:33:18.000Z,-0.2
2023-04-03T02:34:32.478Z,-0.2
2023-04-03T02:35:46.000Z,-0.2
2023-04-03T02:37:01.000Z,-0.3
2023-04-03T02:38:15.000Z,-0.3
2023-04-03T02:39:29.000Z,-0.3
2023-04-03T02:41:58.632Z,-0.4
2023-04-03T02:43:12.000Z,-0.4
2023-04-03T02:44:26.000Z,-0.4
2023-04-03T02:46:55.000Z,-0.4
2023-04-03T02:48:09.434Z,-0.5
2023-04-03T02:49:23.000Z,-0.5
2023-04-03T02:50:38.000Z,-0.5
2023-04-03T02:53:06.000Z,-0.6
2023-04-03T02:55:35.000Z,-0.6
2023-04-03T02:56:49.905Z,-0.6
2023-04-03T02:58:04.000Z,-0.6
2023-04-03T02:59:17.000Z,-0.6
2023-04-03T03:00:32.000Z,-0.6
2023-04-03T03:01:46.371Z,-0.6
2023-04-03T03:04:15.000Z,-0.7
2023-04-03T03:05:29.000Z,-0.7
2023-04-03T03:06:43.000Z,-0.7
2023-04-03T03:09:12.000Z,-0.7
2023-04-03T03:10:25.935Z,-0.7
2023-04-03T03:11:40.000Z,-0.7
2023-04-03T03:12:54.640Z,-0.7
2023-04-03T03:15:23.000Z,-0.8
2023-04-03T03:16:37.000Z,-0.8
2023-04-03T03:17:52.000Z,-0.8
2023-04-03T03:19:06.418Z,-0.8
2023-04-03T03:20:20.000Z,-0.8
2023-04-03T03:21:35.118Z,-0.8
2023-04-03T03:22:49.000Z,-0.9
2023-04-03T03:24:03.000Z,-0.9
2023-04-03T03:26:32.000Z,-0.8
2023-04-03T03:27:46.000Z,-0.8
2023-04-03T03:29:00.000Z,-0.8
2023-04-03T03:31:29.012Z,-0.9
2023-04-03T03:32:43.000Z,-0.9
2023-04-03T03:33:57.000Z,-0.9
2023-04-03T03:35:12.077Z,-0.8
2023-04-03T03:36:26.443Z,-0.9
2023-04-03T03:37:40.000Z,-0.9
2023-04-03T03:38:55.000Z,-0.9
2023-04-03T03:40:09.000Z,-0.9
2023-04-03T03:42:38.000Z,-0.9
2023-04-03T03:43:52.000Z,-0.9
2023-04-03T03:45:05.980Z,-0.9
2023-04-03T03:46:20.000Z,-0.9
2023-04-03T03:47:34.687Z,-0.9
2023-04-03T03:48:49.000Z,-0.9
2023-04-03T03:50:03.000Z,-0.9
2023-04-03T03:51:17.000Z,-0.9
2023-04-03T03:52:32.096Z,-0.9
2023-04-03T03:53:46.000Z,-0.9
2023-04-03T03:55:00.000Z,-1
2023-04-03T03:56:15.000Z,-0.9
2023-04-03T03:57:29.000Z,-0.9
2023-04-03T03:58:43.832Z,-1
2023-04-03T03:59:57.000Z,-1
2023-04-03T04:01:10.000Z,-1
2023-04-03T04:02:24.000Z,-1
2023-04-03T04:04:53.000Z,-1
2023-04-03T04:06:08.000Z,-1
2023-04-03T04:07:22.000Z,-1
2023-04-03T04:08:36.000Z,-1
2023-04-03T04:11:05.268Z,-1
2023-04-03T04:12:19.000Z,-1
2023-04-03T04:13:33.000Z,-1
2023-04-03T04:14:48.167Z,-1
2023-04-03T04:16:02.000Z,-1.1
2023-04-03T04:17:15.000Z,-1.1
2023-04-03T04:18:29.000Z,-1.1
2023-04-03T04:19:43.000Z,-1.1
2023-04-03T04:20:57.785Z,-1.1
2023-04-03T04:22:12.090Z,-1.1
2023-04-03T04:23:26.000Z,-1.1
2023-04-03T04:24:40.000Z,-1.1
2023-04-03T04:25:55.004Z,-1.1
2023-04-03T04:27:09.309Z,-1.1
2023-04-03T04:28:23.000Z,-1.1
2023-04-03T04:29:37.000Z,-1.1
2023-04-03T04:30:51.272Z,-1.1
2023-04-03T04:32:05.569Z,-1.1
2023-04-03T04:33:19.863Z,-1.1
2023-04-03T04:34:34.000Z,-1.1
2023-04-03T04:35:47.000Z,-1.2
2023-04-03T04:38:16.000Z,-1.1
2023-04-03T04:39:30.000Z,-1.2
2023-04-03T04:40:44.000Z,-1.2
2023-04-03T04:41:59.036Z,-1.2
2023-04-03T04:44:27.000Z,-1.2
2023-04-03T04:45:41.925Z,-1.1
2023-04-03T04:46:55.000Z,-1.1
2023-04-03T04:49:23.916Z,-1.2
2023-04-03T04:50:38.000Z,-1.1
2023-04-03T04:51:51.000Z,-1.1
2023-04-03T04:53:05.000Z,-1.1
2023-04-03T04:54:20.153Z,-1.1
2023-04-03T04:55:34.000Z,-1.1
2023-04-03T04:56:48.000Z,-1.1
2023-04-03T04:58:03.000Z,-1.1
2023-04-03T05:00:31.657Z,-1.1
2023-04-03T05:01:45.000Z,-1.1
2023-04-03T05:03:00.000Z,-1
2023-04-03T05:04:14.563Z,-1
2023-04-03T05:05:28.869Z,-0.9
2023-04-03T05:06:43.183Z,-0.9
2023-04-03T05:07:56.000Z,-0.9
2023-04-03T05:09:10.000Z,-0.9
2023-04-03T05:10:25.127Z,-0.8
2023-04-03T05:11:39.000Z,-0.8
2023-04-03T05:12:53.000Z,-0.8
2023-04-03T05:14:08.000Z,-0.7
2023-04-03T05:15:22.000Z,-0.7
2023-04-03T05:16:36.633Z,-0.7
2023-04-03T05:17:50.000Z,-0.7
2023-04-03T05:19:05.000Z,-0.6
2023-04-03T05:20:19.000Z,-0.5
2023-04-03T05:22:48.401Z,-0.5
2023-04-03T05:24:02.000Z,-0.4
2023-04-03T05:25:17.000Z,-0.4
2023-04-03T05:26:31.000Z,-0.3
2023-04-03T05:27:45.609Z,-0.3
2023-04-03T05:28:59.000Z,-0.2
2023-04-03T05:30:14.000Z,-0.1
2023-04-03T05:31:28.000Z,0
2023-04-03T05:33:57.000Z,0.2
2023-04-03T05:35:10.000Z,0.4
2023-04-03T05:36:24.000Z,0.5
2023-04-03T05:37:38.000Z,0.7
2023-04-03T05:38:52.448Z,0.9
2023-04-03T05:40:06.739Z,1.1
2023-04-03T05:41:21.037Z,1.2
2023-04-03T05:45:03.000Z,1.4
2023-04-03T05:46:18.000Z,1.5
2023-04-03T05:47:32.000Z,1.8
2023-04-03T05:50:01.142Z,2.3
2023-04-03T05:51:15.000Z,2.5
2023-04-03T05:52:29.000Z,2.7
2023-04-03T05:53:43.000Z,2.8
2023-04-03T05:56:11.000Z,3.2
2023-04-03T05:57:26.000Z,3.4
2023-04-03T05:58:40.000Z,3.5
2023-04-03T06:02:23.204Z,4
2023-04-03T06:03:37.000Z,4.3
2023-04-03T06:04:51.000Z,4.6
2023-04-03T06:07:20.000Z,4.4
2023-04-03T06:08:34.000Z,5
2023-04-03T06:09:49.000Z,5.4
2023-04-03T06:11:03.297Z,5.6
2023-04-03T06:12:17.597Z,5.7
2023-04-03T06:13:31.897Z,5.6
2023-04-03T06:14:46.000Z,5.8
2023-04-03T06:15:59.000Z,6.1
2023-04-03T06:17:13.853Z,6
2023-04-03T06:19:42.000Z,5.9
2023-04-03T06:20:56.000Z,5.8
2023-04-03T06:22:11.000Z,6.2
2023-04-03T06:24:39.000Z,5.9
2023-04-03T06:25:53.000Z,6.1
2023-04-03T06:27:08.000Z,6.2
2023-04-03T06:29:36.858Z,6.3
2023-04-03T06:30:51.000Z,6.3
2023-04-03T06:32:05.000Z,6.1
2023-04-03T06:33:19.000Z,6.1
2023-04-03T06:35:47.000Z,6.2
2023-04-03T06:38:16.000Z,5.9
2023-04-03T06:40:44.588Z,5.4
2023-04-03T06:41:58.892Z,5.1
2023-04-03T06:43:13.000Z,4.7
2023-04-03T06:45:41.796Z,4.5
2023-04-03T06:46:56.000Z,4.6
2023-04-03T06:48:10.000Z,4.5
2023-04-03T06:49:24.000Z,4.4
2023-04-03T06:51:53.291Z,4.3
2023-04-03T06:53:06.000Z,4.1
2023-04-03T06:54:20.000Z,4.2
2023-04-03T06:55:35.233Z,4.2
2023-04-03T06:58:03.838Z,4.3
2023-04-03T06:59:18.000Z,4.5
2023-04-03T07:00:32.000Z,4.5
2023-04-03T07:03:01.046Z,4.3
2023-04-03T07:04:15.000Z,4.4
2023-04-03T07:05:29.000Z,4.3
2023-04-03T07:06:43.939Z,4.1
2023-04-03T07:09:12.000Z,4.3
2023-04-03T07:10:26.851Z,4.5
2023-04-03T07:11:41.144Z,4.5
2023-04-03T07:14:09.743Z,5
2023-04-03T07:15:23.000Z,4.9
2023-04-03T07:16:37.000Z,5.1
2023-04-03T07:17:51.690Z,5.4
2023-04-03T07:20:20.000Z,5.2
2023-04-03T07:21:34.000Z,5.3
2023-04-03T07:22:48.000Z,5.5
2023-04-03T07:25:17.000Z,5.5
2023-04-03T07:26:31.000Z,5.2
2023-04-03T07:27:46.083Z,5.2
2023-04-03T07:29:00.396Z,5.2
2023-04-03T07:31:29.000Z,5.8
2023-04-03T07:32:43.419Z,6.1
2023-04-03T07:33:57.000Z,6.4
2023-04-03T07:36:26.321Z,6.3
2023-04-03T07:37:40.000Z,6.1
2023-04-03T07:38:54.913Z,5.8
2023-04-03T07:41:23.506Z,5.5
2023-04-03T07:42:37.000Z,5.2
2023-04-03T07:43:52.110Z,5.1
2023-04-03T07:45:06.000Z,5.5
2023-04-03T07:47:35.015Z,5.8
2023-04-03T07:50:03.612Z,5.6
2023-04-03T07:51:17.000Z,5.8
2023-04-03T07:53:46.509Z,6
2023-04-03T07:55:00.000Z,6
2023-04-03T07:56:15.122Z,6
2023-04-03T07:58:43.718Z,6.2
2023-04-03T07:59:58.000Z,5.8
2023-04-03T08:01:12.000Z,5.1
2023-04-03T08:02:26.610Z,5.4
2023-04-03T08:03:40.912Z,5.7
2023-04-03T08:04:55.000Z,6
2023-04-03T08:06:09.516Z,6
2023-04-03T08:07:23.000Z,6
2023-04-03T08:08:37.177Z,5.4
2023-04-03T08:09:51.498Z,5.7
2023-04-03T08:11:05.000Z,6.2
2023-04-03T08:12:20.000Z,6.8
2023-04-03T08:14:48.696Z,6.8
2023-04-03T08:16:02.981Z,5.9
2023-04-03T08:17:17.000Z,5.4
2023-04-03T08:18:31.000Z,5
2023-04-03T08:21:00.000Z,5.2
2023-04-03T08:22:14.000Z,4.7
2023-04-03T08:23:28.000Z,4.2
2023-04-03T08:24:43.087Z,3.8
2023-04-03T08:25:57.400Z,4.3
2023-04-03T08:27:11.000Z,5
2023-04-03T08:28:25.989Z,5.8
2023-04-03T08:29:39.000Z,6.2
2023-04-03T08:32:07.950Z,6.6
2023-04-03T08:33:22.000Z,6.6
2023-04-03T08:34:36.000Z,6.5
2023-04-03T08:35:50.832Z,6.5
2023-04-03T08:38:19.431Z,6.3
2023-04-03T08:39:33.751Z,6.4
2023-04-03T08:40:48.000Z,6.4
2023-04-03T08:43:16.000Z,7.4
2023-04-03T08:44:30.000Z,7.1
2023-04-03T08:45:45.000Z,6.3
2023-04-03T08:46:58.599Z,5.4
2023-04-03T08:49:27.000Z,4.4
2023-04-03T08:50:41.000Z,4.1
2023-04-03T08:51:55.000Z,4.2
2023-04-03T08:55:38.000Z,3.5
2023-04-03T08:56:53.000Z,3.3
2023-04-03T08:58:07.000Z,3.2
2023-04-03T08:59:21.595Z,3.3
2023-04-03T09:00:35.000Z,3.3
2023-04-03T09:01:50.000Z,3.5
2023-04-03T09:03:03.000Z,3.4
2023-04-03T09:04:17.834Z,3.4
2023-04-03T09:05:32.000Z,3.3
2023-04-03T09:06:46.000Z,3.2
2023-04-03T09:08:00.000Z,3.3
2023-04-03T09:09:15.000Z,3.5
2023-04-03T09:10:29.348Z,3.7
2023-04-03T09:11:43.000Z,3.8
2023-04-03T09:12:57.000Z,3.8
2023-04-03T09:14:12.000Z,3.8
2023-04-03T09:16:40.000Z,4.1
2023-04-03T09:17:55.000Z,4.3
2023-04-03T09:19:09.000Z,4.3
2023-04-03T09:20:23.762Z,4.3
2023-04-03T09:22:51.000Z,4.2
2023-04-03T09:24:05.722Z,4.1
2023-04-03T09:25:20.000Z,4
2023-04-03T09:27:48.000Z,4
2023-04-03T09:29:02.000Z,4
2023-04-03T09:30:16.000Z,3.9
2023-04-03T09:31:30.000Z,3.8
2023-04-03T09:32:44.872Z,3.8
2023-04-03T09:33:59.172Z,3.7
2023-04-03T09:35:13.000Z,3.7
2023-04-03T09:36:27.000Z,3.6
2023-04-03T09:38:56.378Z,3.3
2023-04-03T09:40:10.000Z,3.3
2023-04-03T09:41:25.000Z,3.3
2023-04-03T09:45:07.000Z,3.7
2023-04-03T09:46:22.171Z,3.9
2023-04-03T09:47:36.000Z,4
2023-04-03T09:50:05.089Z,3.8
2023-04-03T09:51:19.000Z,3.6
2023-04-03T09:52:32.000Z,3.6
2023-04-03T09:56:15.000Z,3.7
2023-04-03T09:57:29.925Z,3.9
2023-04-03T09:58:44.000Z,4
2023-04-03T10:03:41.000Z,3.8
2023-04-03T10:04:55.738Z,3.7
2023-04-03T10:07:24.338Z,3.8
2023-04-03T10:08:38.629Z,3.8
2023-04-03T10:09:52.000Z,3.9
2023-04-03T10:12:21.543Z,4
2023-04-03T10:13:34.882Z,4.1
2023-04-03T10:14:49.000Z,4.2
2023-04-03T10:16:03.000Z,4.4
2023-04-03T10:18:32.000Z,4.7
2023-04-03T10:19:46.385Z,4.9
2023-04-03T10:21:00.000Z,5.1
2023-04-03T10:23:29.286Z,5.3
2023-04-03T10:24:43.589Z,5.4
2023-04-03T10:25:57.886Z,5.5
2023-04-03T10:27:12.195Z,5.4
2023-04-03T10:28:26.479Z,5.3
2023-04-03T10:29:40.000Z,5.1
2023-04-03T10:30:55.000Z,5
2023-04-03T10:32:09.000Z,5.1
2023-04-03T10:34:37.000Z,5
2023-04-03T10:35:51.000Z,5
2023-04-03T10:37:05.000Z,4.9
2023-04-03T10:38:19.941Z,4.8
2023-04-03T10:40:48.000Z,4.9
2023-04-03T10:42:02.833Z,4.8
2023-04-03T10:43:17.000Z,4.8
2023-04-03T10:44:31.436Z,4.8
2023-04-03T10:45:45.000Z,4.9
2023-04-03T10:47:00.044Z,4.9
2023-04-03T10:48:14.000Z,4.9
2023-04-03T10:49:28.632Z,4.8
2023-04-03T10:51:57.000Z,4.8
2023-04-03T10:53:11.538Z,4.8
2023-04-03T10:54:24.000Z,4.9
2023-04-03T10:56:53.492Z,5.3
2023-04-03T10:58:07.000Z,5.2
2023-04-03T10:59:22.000Z,5.1
2023-04-03T11:00:36.386Z,5.1
2023-04-03T11:03:05.000Z,4.9
2023-04-03T11:04:19.000Z,4.9
2023-04-03T11:05:33.600Z,4.9
2023-04-03T11:06:47.900Z,4.8
2023-04-03T11:08:02.000Z,4.9
2023-04-03T11:09:16.000Z,4.8
2023-04-03T11:10:30.000Z,4.7
2023-04-03T11:11:45.000Z,4.9
2023-04-03T11:14:13.000Z,5
2023-04-03T11:15:27.993Z,5
2023-04-03T11:16:42.000Z,5.1
2023-04-03T11:19:09.000Z,5.2
2023-04-03T11:20:24.000Z,5.2
2023-04-03T11:21:38.000Z,5.2
2023-04-03T11:22:52.840Z,5.1
2023-04-03T11:25:21.000Z,4.8
2023-04-03T11:26:35.755Z,4.9
2023-04-03T11:27:50.000Z,5
2023-04-03T11:29:04.341Z,5
2023-04-03T11:30:18.651Z,5
2023-04-03T11:31:32.000Z,5.1
2023-04-03T11:32:47.000Z,5.1
2023-04-03T11:34:00.588Z,5.3
2023-04-03T11:35:14.894Z,5.3
2023-04-03T11:36:29.000Z,5.2
2023-04-03T11:37:43.491Z,5.1
2023-04-03T11:41:26.400Z,5.2
2023-04-03T11:42:40.000Z,5.3
2023-04-03T11:43:55.000Z,5.2
2023-04-03T11:45:09.303Z,5.2
2023-04-03T11:47:37.000Z,5.1
2023-04-03T11:48:52.000Z,5.1
2023-04-03T11:50:05.000Z,5.1
2023-04-03T11:51:19.841Z,5
2023-04-03T11:52:34.141Z,5.1
2023-04-03T11:53:48.455Z,5.2
2023-04-03T11:55:02.760Z,5.2
2023-04-03T11:56:17.058Z,5.1
2023-04-03T11:57:31.349Z,5
2023-04-03T11:58:45.000Z,5
2023-04-03T11:59:59.000Z,5.1
2023-04-03T12:01:14.000Z,5.1
2023-04-03T12:03:42.000Z,5.1
2023-04-03T12:04:57.147Z,5
2023-04-03T12:06:11.000Z,5
2023-04-03T12:07:25.000Z,4.9
2023-04-03T12:09:54.000Z,4.8
2023-04-03T12:11:08.666Z,4.7
2023-04-03T12:12:22.000Z,4.8
2023-04-03T12:14:50.000Z,5.1
2023-04-03T12:16:04.000Z,5.3
2023-04-03T12:17:19.000Z,5.3
2023-04-03T12:18:32.000Z,5.3
2023-04-03T12:21:01.000Z,5.1
2023-04-03T12:22:15.000Z,5
2023-04-03T12:25:58.362Z,4.9
2023-04-03T12:27:12.000Z,4.8
2023-04-03T12:28:27.000Z,4.9
2023-04-03T12:29:41.260Z,4.9
2023-04-03T12:32:09.000Z,4.9
2023-04-03T12:33:24.171Z,5
2023-04-03T12:34:38.000Z,5
2023-04-03T12:35:52.893Z,5
2023-04-03T12:37:07.187Z,4.9
2023-04-03T12:38:21.000Z,4.8
2023-04-03T12:39:35.786Z,4.9
2023-04-03T12:40:50.000Z,4.9
2023-04-03T12:43:18.000Z,5.1
2023-04-03T12:44:32.984Z,5.1
2023-04-03T12:45:47.000Z,5.1
2023-04-03T12:47:01.587Z,5.1
2023-04-03T12:48:15.895Z,5.2
2023-04-03T12:49:30.000Z,5.2
2023-04-03T12:50:44.000Z,5.3
2023-04-03T12:51:58.786Z,5.3
2023-04-03T12:53:13.086Z,5.4
2023-04-03T12:54:27.000Z,5.4
2023-04-03T12:56:56.000Z,5.5
2023-04-03T12:59:24.606Z,5.6
2023-04-03T13:01:53.000Z,5.4
2023-04-03T13:03:06.548Z,5.3
2023-04-03T13:04:20.848Z,5.3
2023-04-03T13:05:35.000Z,5.3
2023-04-03T13:06:49.453Z,5.3
2023-04-03T13:08:03.000Z,5.2
2023-04-03T13:10:32.350Z,5.2
2023-04-03T13:11:46.000Z,5.2
2023-04-03T13:13:00.000Z,5.2
2023-04-03T13:14:15.251Z,5.2
2023-04-03T13:16:43.000Z,5.3
2023-04-03T13:17:58.000Z,5.2
2023-04-03T13:19:12.000Z,5.1
2023-04-03T13:20:26.742Z,5
2023-04-03T13:21:41.047Z,5
2023-04-03T13:22:54.000Z,4.9
2023-04-03T13:24:08.000Z,4.9
2023-04-03T13:25:23.006Z,4.9
2023-04-03T13:27:51.000Z,4.9
2023-04-03T13:29:05.000Z,4.9
2023-04-03T13:30:20.000Z,5
2023-04-03T13:32:48.802Z,4.9
2023-04-03T13:34:03.000Z,4.9
2023-04-03T13:36:31.696Z,4.7
2023-04-03T13:37:46.000Z,4.7
2023-04-03T13:39:00.000Z,4.6
2023-04-03T13:40:13.662Z,4.6
2023-04-03T13:41:27.000Z,4.6
2023-04-03T13:42:42.258Z,4.6
2023-04-03T13:45:10.000Z,4.6
2023-04-03T13:46:25.000Z,4.7
2023-04-03T13:47:39.000Z,4.7
2023-04-03T13:50:08.000Z,4.7
2023-04-03T13:51:22.363Z,4.8
2023-04-03T13:52:36.000Z,4.8
2023-04-03T13:55:05.000Z,4.8
2023-04-03T13:56:19.000Z,4.8
2023-04-03T13:57:33.000Z,4.8
2023-04-03T13:58:48.153Z,4.8
2023-04-03T14:00:02.458Z,4.8
2023-04-03T14:01:15.000Z,4.8
2023-04-03T14:02:30.095Z,4.7
2023-04-03T14:03:44.412Z,4.7
2023-04-03T14:07:27.000Z,4.8
2023-04-03T14:08:41.602Z,4.8
2023-04-03T14:12:24.510Z,4.8
2023-04-03T14:13:38.000Z,4.8
2023-04-03T14:14:53.000Z,4.8
2023-04-03T14:16:07.403Z,4.7
2023-04-03T14:17:20.000Z,4.7
2023-04-03T14:18:35.000Z,4.7
2023-04-03T14:19:49.000Z,4.7
2023-04-03T14:21:03.000Z,4.7
2023-04-03T14:22:17.955Z,4.6
2023-04-03T14:23:32.000Z,4.6
2023-04-03T14:24:46.557Z,4.5
2023-04-03T14:26:00.000Z,4.5
2023-04-03T14:28:29.000Z,4.5
2023-04-03T14:29:43.000Z,4.5
2023-04-03T14:30:58.062Z,4.6
2023-04-03T14:32:12.000Z,4.5
2023-04-03T14:34:40.000Z,4.6
2023-04-03T14:35:54.303Z,4.6
2023-04-03T14:37:08.000Z,4.6
2023-04-03T14:39:37.204Z,4.6
2023-04-03T14:40:51.000Z,4.5
2023-04-03T14:42:05.000Z,4.5
2023-04-03T14:43:20.108Z,4.5
2023-04-03T14:44:34.405Z,4.5
2023-04-03T14:45:48.000Z,4.5
2023-04-03T14:47:03.000Z,4.4
2023-04-03T14:48:17.000Z,4.4
2023-04-03T14:49:31.607Z,4.5
2023-04-03T14:50:44.000Z,4.4
2023-04-03T14:51:59.000Z,4.4
2023-04-03T14:53:13.000Z,4.4
2023-04-03T14:54:27.869Z,4.4
2023-04-03T14:56:56.000Z,4.4
2023-04-03T14:59:25.000Z,4.4
2023-04-03T15:01:53.667Z,4.3
2023-04-03T15:03:08.000Z,4.2
2023-04-03T15:04:22.000Z,4.2
2023-04-03T15:05:36.000Z,4.2
2023-04-03T15:08:04.000Z,4.2
2023-04-03T15:09:18.000Z,4.2
2023-04-03T15:10:32.000Z,4.2
2023-04-03T15:13:01.414Z,4.3
2023-04-03T15:14:15.000Z,4.2
2023-04-03T15:15:30.000Z,4.2
2023-04-03T15:19:12.000Z,4.2
2023-04-03T15:20:27.225Z,4.2
2023-04-03T15:21:41.000Z,4.2
2023-04-03T15:24:10.000Z,4.2
2023-04-03T15:25:24.000Z,4.1
2023-04-03T15:26:38.000Z,4.1
2023-04-03T15:27:53.000Z,4.2
2023-04-03T15:30:20.000Z,4.1
2023-04-03T15:31:34.978Z,4.1
2023-04-03T15:32:49.000Z,4.1
2023-04-03T15:34:03.567Z,4.1
2023-04-03T15:35:17.878Z,4
2023-04-03T15:36:32.000Z,4
2023-04-03T15:37:46.000Z,3.9
2023-04-03T15:39:00.769Z,3.9
2023-04-03T15:40:15.084Z,4
2023-04-03T15:41:29.000Z,3.9
2023-04-03T15:42:43.668Z,3.9
2023-04-03T15:43:58.000Z,4
2023-04-03T15:45:11.329Z,4
2023-04-03T15:46:25.625Z,3.9
2023-04-03T15:47:39.000Z,4
2023-04-03T15:48:54.000Z,4
2023-04-03T15:50:07.594Z,4
2023-04-03T15:52:35.000Z,3.9
2023-04-03T15:53:49.548Z,3.9
2023-04-03T15:55:03.851Z,4
2023-04-03T15:56:18.149Z,3.9
2023-04-03T15:57:32.448Z,3.8
2023-04-03T15:58:46.737Z,3.8
2023-04-03T16:00:01.000Z,3.8
2023-04-03T16:01:15.339Z,3.8
2023-04-03T16:03:43.955Z,3.8
2023-04-03T16:04:58.242Z,3.8
2023-04-03T16:06:12.552Z,3.8
2023-04-03T16:07:26.839Z,3.8
2023-04-03T16:08:40.202Z,3.8
2023-04-03T16:09:54.000Z,3.8
2023-04-03T16:11:08.000Z,3.7
2023-04-03T16:12:23.091Z,3.7
2023-04-03T16:14:51.000Z,3.7
2023-04-03T16:17:20.000Z,3.7
2023-04-03T16:18:34.599Z,3.6
2023-04-03T16:19:48.000Z,3.7
2023-04-03T16:21:03.000Z,3.7
2023-04-03T16:22:17.000Z,3.7
2023-04-03T16:23:31.000Z,3.7
2023-04-03T16:26:00.000Z,3.7
2023-04-03T16:27:14.696Z,3.7
2023-04-03T16:28:28.000Z,3.7
2023-04-03T16:29:41.430Z,3.6
2023-04-03T16:30:55.738Z,3.7
2023-04-03T16:32:10.000Z,3.6
2023-04-03T16:33:24.000Z,3.6
2023-04-03T16:34:38.634Z,3.6
2023-04-03T16:37:07.000Z,3.6
2023-04-03T16:38:21.000Z,3.5
2023-04-03T16:39:35.000Z,3.6
2023-04-03T16:42:04.000Z,3.6
2023-04-03T16:43:18.000Z,3.5
2023-04-03T16:44:33.000Z,3.6
2023-04-03T16:45:47.000Z,3.6
2023-04-03T16:48:15.000Z,3.6
2023-04-03T16:50:44.000Z,3.5
2023-04-03T16:53:12.186Z,3.5
2023-04-03T16:54:26.000Z,3.5
2023-04-03T16:55:40.000Z,3.5
2023-04-03T16:56:55.000Z,3.5
2023-04-03T16:59:23.000Z,3.5
2023-04-03T17:00:38.000Z,3.5
2023-04-03T17:01:52.000Z,3.5
2023-04-03T17:03:06.593Z,3.5
2023-04-03T17:04:20.890Z,3.5
2023-04-03T17:05:35.000Z,3.5
2023-04-03T17:06:49.000Z,3.5
2023-04-03T17:08:03.802Z,3.4
2023-04-03T17:10:32.000Z,3.4
2023-04-03T17:11:46.702Z,3.4
2023-04-03T17:13:01.000Z,3.4
2023-04-03T17:14:15.290Z,3.4
2023-04-03T17:15:29.591Z,3.4
2023-04-03T17:16:42.000Z,3.4
2023-04-03T17:17:57.000Z,3.4
2023-04-03T17:19:11.000Z,3.4
2023-04-03T17:21:40.000Z,3.4
2023-04-03T17:22:54.451Z,3.4
2023-04-03T17:24:08.000Z,3.4
2023-04-03T17:25:23.049Z,3.4
2023-04-03T17:26:37.354Z,3.4
2023-04-03T17:27:51.000Z,3.4
2023-04-03T17:29:05.000Z,3.4
2023-04-03T17:32:48.000Z,3.4
2023-04-03T17:34:03.000Z,3.4
2023-04-03T17:35:17.000Z,3.4
2023-04-03T17:37:46.000Z,3.3
2023-04-03T17:39:00.000Z,3.3
2023-04-03T17:40:14.000Z,3.3
2023-04-03T17:41:28.958Z,3.3
2023-04-03T17:42:43.266Z,3.3
2023-04-03T17:43:57.562Z,3.3
2023-04-03T17:46:26.000Z,3.3
2023-04-03T17:48:54.754Z,3.3
2023-04-03T17:50:09.000Z,3.2
2023-04-03T17:51:22.000Z,3.3
2023-04-03T17:52:36.707Z,3.3
2023-04-03T17:55:05.000Z,3.3
2023-04-03T17:57:33.000Z,3.3
2023-04-03T17:58:48.221Z,3.2
2023-04-03T18:00:02.513Z,3.2
2023-04-03T18:01:16.000Z,3.2
2023-04-03T18:02:31.000Z,3.2
2023-04-03T18:04:59.708Z,3.2
2023-04-03T18:06:14.000Z,3.2
2023-04-03T18:08:41.728Z,3.2
2023-04-03T18:12:24.000Z,3.1
2023-04-03T18:13:39.000Z,3.1
2023-04-03T18:14:53.000Z,3.1
2023-04-03T18:18:36.291Z,3.1
2023-04-03T18:19:50.000Z,3
2023-04-03T18:21:05.001Z,3
2023-04-03T18:23:33.702Z,3
2023-04-03T18:24:48.000Z,3
2023-04-03T18:28:30.000Z,3
2023-04-03T18:29:44.000Z,3
2023-04-03T18:30:58.000Z,3
2023-04-03T18:33:27.000Z,2.9
2023-04-03T18:34:41.932Z,3
2023-04-03T18:35:56.000Z,2.9
2023-04-03T18:37:10.643Z,2.9
2023-04-03T18:38:25.010Z,2.9
2023-04-03T18:39:39.000Z,2.9
2023-04-03T18:40:53.708Z,2.9
2023-04-03T18:42:08.000Z,2.9
2023-04-03T18:44:36.775Z,2.9
2023-04-03T18:45:51.000Z,2.9
2023-04-03T18:47:05.000Z,2.9
2023-04-03T18:48:19.000Z,2.9
2023-04-03T18:50:48.000Z,2.9
2023-04-03T18:52:02.000Z,2.9
2023-04-03T18:53:17.000Z,2.9
2023-04-03T18:56:59.000Z,2.9
2023-04-03T18:58:13.000Z,2.9
2023-04-03T19:00:42.442Z,2.9
2023-04-03T19:01:56.000Z,2.9
2023-04-03T19:03:11.000Z,2.9
2023-04-03T19:04:25.000Z,2.9
2023-04-03T19:06:54.000Z,2.9
2023-04-03T19:08:08.000Z,2.9
2023-04-03T19:09:22.000Z,2.9
2023-04-03T19:10:37.000Z,3
2023-04-03T19:11:51.637Z,3
2023-04-03T19:13:06.000Z,3
2023-04-03T19:14:20.336Z,3
2023-04-03T19:15:34.000Z,3
2023-04-03T19:16:49.057Z,3
2023-04-03T19:18:02.000Z,2.9
2023-04-03T19:19:16.000Z,2.9
2023-04-03T19:20:31.000Z,2.9
2023-04-03T19:22:59.864Z,2.9
2023-04-03T19:24:14.000Z,2.9
2023-04-03T19:25:28.000Z,2.9
2023-04-03T19:26:42.000Z,2.9
2023-04-03T19:27:57.288Z,2.9
2023-04-03T19:29:11.000Z,2.9
2023-04-03T19:30:26.000Z,2.9
2023-04-03T19:31:40.000Z,2.9
2023-04-03T19:32:54.710Z,2.9
2023-04-03T19:35:23.000Z,2.8
2023-04-03T19:37:52.000Z,2.9
2023-04-03T19:40:20.000Z,2.9
2023-04-03T19:41:35.000Z,2.9
2023-04-03T19:42:49.000Z,2.9
2023-04-03T19:44:03.000Z,2.9
2023-04-03T19:45:18.254Z,2.9
2023-04-03T19:46:32.000Z,2.9
2023-04-03T19:47:46.000Z,2.9
2023-04-03T19:49:00.000Z,2.9
2023-04-03T19:50:14.721Z,2.9
2023-04-03T19:51:29.063Z,3
2023-04-03T19:52:43.000Z,3
2023-04-03T19:53:57.000Z,3
2023-04-03T19:55:12.133Z,3
2023-04-03T19:57:40.000Z,3
2023-04-03T19:58:55.193Z,3
2023-04-03T20:00:09.000Z,3
2023-04-03T20:01:23.902Z,3
2023-04-03T20:02:38.000Z,3
2023-04-03T20:03:51.000Z,3
2023-04-03T20:05:06.000Z,3
2023-04-03T20:06:20.000Z,3
2023-04-03T20:07:33.796Z,3
2023-04-03T20:08:48.000Z,3
2023-04-03T20:10:01.546Z,2.9
2023-04-03T20:11:15.000Z,2.9
2023-04-03T20:12:30.264Z,2.9
2023-04-03T20:13:44.000Z,2.8
2023-04-03T20:14:59.000Z,2.9
2023-04-03T20:16:13.000Z,2.8
2023-04-03T20:17:27.689Z,2.8
2023-04-03T20:19:56.000Z,2.8
2023-04-03T20:21:10.000Z,2.8
2023-04-03T20:22:25.000Z,2.8
2023-04-03T20:24:53.000Z,2.8
2023-04-03T20:26:08.162Z,2.7
2023-04-03T20:27:22.000Z,2.7
2023-04-03T20:28:36.872Z,2.7
2023-04-03T20:29:51.219Z,2.7
2023-04-03T20:31:05.000Z,2.6
2023-04-03T20:32:19.000Z,2.6
2023-04-03T20:33:34.000Z,2.6
2023-04-03T20:36:03.000Z,2.6
2023-04-03T20:37:17.000Z,2.6
2023-04-03T20:38:31.000Z,2.6
2023-04-03T20:39:45.000Z,2.6
2023-04-03T20:42:13.000Z,2.6
2023-04-03T20:43:28.000Z,2.6
2023-04-03T20:44:41.000Z,2.6
2023-04-03T20:47:10.311Z,2.6